Time;durP1;ratioP1;P1;durP2;ratioP2;P2;SDS_P1;SDS_P2;PMS_P1;PMS_P2;Temp;Humidity;BMP_temperature;BMP_pressure;BME280_temperature;BME280_humidity;BME280_pressure;Samples;Min_cycle;Max_cycle;Signal;HPM_P1;HPM_P2
2021/06/12 00:02:20;;;;;;;4.80;3.80;;;23.40;64.00;;;;;;10412544;28;20409;-60
2021/06/12 00:07:20;;;;;;;4.60;3.75;;;23.40;64.00;;;;;;10413876;28;20033;-60
2021/06/12 00:12:21;;;;;;;4.28;3.50;;;23.40;64.00;;;;;;10413460;28;20446;-59
2021/06/12 00:17:22;;;;;;;4.85;3.47;;;23.40;64.00;;;;;;10413593;28;20544;-59
2021/06/12 00:22:22;;;;;;;4.30;3.25;;;23.40;64.10;;;;;;10413335;28;20034;-59
2021/06/12 00:27:23;;;;;;;4.47;3.75;;;23.40;64.10;;;;;;10413182;28;20029;-60
2021/06/12 00:32:24;;;;;;;5.47;3.60;;;23.40;64.10;;;;;;10413153;28;20382;-59
2021/06/12 00:37:24;;;;;;;4.50;3.42;;;23.40;64.10;;;;;;10413081;28;20061;-60
2021/06/12 00:42:25;;;;;;;5.28;3.13;;;23.30;64.00;;;;;;10422226;28;20061;-59
2021/06/12 00:47:26;;;;;;;3.40;3.10;;;23.40;64.10;;;;;;10416114;28;20124;-60
2021/06/12 00:52:26;;;;;;;4.95;3.58;;;23.30;64.00;;;;;;10419156;28;20514;-59
2021/06/12 00:57:27;;;;;;;4.85;3.00;;;23.30;64.00;;;;;;10389536;28;20025;-60
2021/06/12 01:02:28;;;;;;;6.97;3.70;;;23.30;63.90;;;;;;10420179;28;20037;-60
2021/06/12 01:07:28;;;;;;;4.45;2.85;;;23.30;64.00;;;;;;10419165;28;20040;-59
2021/06/12 01:12:38;;;;;;;3.50;3.03;;;23.30;64.00;;;;;;10419084;28;20515;-59
2021/06/12 01:17:59;;;;;;;4.30;3.20;;;23.30;64.10;;;;;;10419497;28;20112;-60
2021/06/12 01:23:19;;;;;;;4.88;3.83;;;23.30;64.10;;;;;;10419175;28;20029;-60
2021/06/12 01:28:58;;;;;;;4.00;3.30;;;23.30;64.00;;;;;;10418862;28;20033;-60
2021/06/12 01:34:03;;;;;;;6.63;3.60;;;23.30;64.10;;;;;;10419047;28;20104;-60
2021/06/12 01:39:05;;;;;;;4.55;3.20;;;23.30;64.10;;;;;;10417592;28;20232;-59
2021/06/12 01:44:07;;;;;;;3.47;2.97;;;23.30;64.10;;;;;;10426399;28;20085;-60
2021/06/12 01:49:08;;;;;;;4.72;3.40;;;23.30;64.10;;;;;;10416271;28;20050;-60
2021/06/12 01:54:11;;;;;;;3.90;2.92;;;23.30;64.10;;;;;;10418050;28;20124;-60
2021/06/12 01:59:12;;;;;;;3.35;2.83;;;23.30;64.00;;;;;;10416401;28;20025;-59
2021/06/12 02:04:13;;;;;;;4.65;3.47;;;23.30;64.00;;;;;;10417987;28;20412;-59
2021/06/12 02:09:16;;;;;;;4.65;3.53;;;23.30;64.00;;;;;;10432752;28;20033;-59
2021/06/12 02:14:17;;;;;;;5.05;3.10;;;23.20;63.90;;;;;;10416023;28;20029;-59
2021/06/12 02:19:19;;;;;;;4.75;3.42;;;23.30;64.00;;;;;;10415683;28;20046;-59
2021/06/12 02:24:20;;;;;;;4.07;3.15;;;23.20;63.90;;;;;;10415733;28;20370;-59
2021/06/12 02:29:23;;;;;;;5.22;3.28;;;23.20;63.90;;;;;;10416334;28;20038;-60
2021/06/12 02:34:24;;;;;;;5.00;2.97;;;23.20;63.90;;;;;;10416692;28;20370;-60
2021/06/12 02:39:24;;;;;;;3.92;3.33;;;23.20;63.90;;;;;;10414873;28;20037;-59
2021/06/12 02:44:26;;;;;;;4.55;2.95;;;23.20;63.90;;;;;;10421447;28;20045;-60
2021/06/12 02:49:37;;;;;;;3.95;2.85;;;23.20;64.00;;;;;;10415848;28;20037;-60
2021/06/12 02:54:39;;;;;;;4.22;3.22;;;23.20;64.10;;;;;;10414574;28;20033;-59
2021/06/12 02:59:43;;;;;;;4.65;3.05;;;23.20;64.00;;;;;;10415415;28;20041;-59
2021/06/12 03:04:46;;;;;;;4.90;3.65;;;23.20;64.00;;;;;;10411499;28;20026;-59
2021/06/12 03:09:49;;;;;;;4.28;3.15;;;23.20;63.90;;;;;;10410116;28;20061;-59
2021/06/12 03:14:50;;;;;;;5.15;3.25;;;23.20;63.90;;;;;;10407711;28;20022;-60
2021/06/12 03:19:52;;;;;;;3.75;3.35;;;23.20;64.00;;;;;;10414302;28;20064;-60
2021/06/12 03:24:53;;;;;;;4.28;2.88;;;23.10;63.90;;;;;;10413544;28;20105;-60
2021/06/12 03:29:56;;;;;;;5.90;3.00;;;23.20;64.00;;;;;;10412580;28;20033;-60
2021/06/12 03:34:58;;;;;;;4.32;3.40;;;23.20;63.90;;;;;;10412199;28;20029;-59
2021/06/12 03:40:00;;;;;;;4.47;2.78;;;23.20;64.00;;;;;;10410873;28;20047;-60
2021/06/12 03:45:06;;;;;;;3.72;3.33;;;23.20;64.10;;;;;;10418007;28;20405;-60
2021/06/12 03:50:11;;;;;;;4.55;2.67;;;23.10;64.00;;;;;;10413911;28;20037;-59
2021/06/12 03:55:12;;;;;;;5.20;3.22;;;23.10;64.00;;;;;;10412720;28;20026;-60
2021/06/12 04:00:14;;;;;;;3.95;2.75;;;23.10;64.00;;;;;;10413598;28;20029;-59
2021/06/12 04:05:15;;;;;;;4.25;3.30;;;23.20;64.00;;;;;;10412563;28;20041;-59
2021/06/12 04:10:16;;;;;;;4.15;2.53;;;23.10;64.00;;;;;;10406252;28;20053;-60
2021/06/12 04:15:16;;;;;;;5.25;3.45;;;23.10;64.00;;;;;;10408054;28;20128;-59
2021/06/12 04:20:17;;;;;;;3.75;3.08;;;23.10;64.00;;;;;;10413571;28;20029;-60
2021/06/12 04:25:18;;;;;;;4.35;3.30;;;23.10;64.00;;;;;;10420023;28;20033;-59
2021/06/12 04:30:20;;;;;;;3.75;3.03;;;23.10;64.00;;;;;;10419740;28;20063;-60
2021/06/12 04:35:21;;;;;;;5.20;4.05;;;23.10;64.10;;;;;;10421240;28;20029;-59
2021/06/12 04:40:22;;;;;;;3.92;2.85;;;23.10;64.10;;;;;;10421051;28;20029;-59
2021/06/12 04:45:23;;;;;;;5.28;3.55;;;23.10;64.00;;;;;;10426951;28;20080;-58
2021/06/12 04:50:24;;;;;;;4.35;3.80;;;23.10;64.10;;;;;;10419297;28;20037;-59
2021/06/12 04:55:25;;;;;;;3.50;2.92;;;23.10;64.10;;;;;;10419441;28;20415;-58
2021/06/12 05:00:26;;;;;;;5.03;3.15;;;23.10;64.10;;;;;;10420219;28;20065;-60
2021/06/12 05:05:26;;;;;;;6.80;3.50;;;23.10;64.10;;;;;;10418200;28;20489;-56
2021/06/12 05:10:27;;;;;;;5.25;3.33;;;23.10;65.10;;;;;;10419115;28;20043;-56
2021/06/12 05:15:29;;;;;;;8.30;4.53;;;23.20;65.20;;;;;;10418323;28;20029;-55
2021/06/12 05:20:37;;;;;;;5.53;3.30;;;23.20;65.40;;;;;;10418426;28;20040;-57
2021/06/12 05:25:38;;;;;;;6.93;4.03;;;23.20;65.10;;;;;;10418183;28;20041;-57
2021/06/12 05:30:38;;;;;;;6.10;3.95;;;23.20;65.50;;;;;;10417905;28;20033;-58
2021/06/12 05:35:39;;;;;;;5.90;3.22;;;23.20;65.40;;;;;;10417636;28;20053;-58
2021/06/12 05:40:40;;;;;;;6.13;3.60;;;23.20;65.00;;;;;;10417960;28;20079;-57
2021/06/12 05:45:40;;;;;;;10.70;4.57;;;23.20;65.10;;;;;;10419255;28;20139;-56
2021/06/12 05:50:41;;;;;;;8.85;3.90;;;23.20;65.50;;;;;;10410248;28;20128;-60
2021/06/12 05:55:42;;;;;;;10.32;3.63;;;23.20;65.10;;;;;;10416812;28;20078;-58
2021/06/12 06:00:43;;;;;;;9.35;4.22;;;23.20;65.10;;;;;;10416874;28;20159;-59
2021/06/12 06:05:43;;;;;;;10.73;3.80;;;23.20;65.20;;;;;;10415575;28;20048;-59
2021/06/12 06:10:44;;;;;;;7.72;4.05;;;23.20;65.40;;;;;;10413927;28;20121;-59
2021/06/12 06:15:45;;;;;;;12.18;4.70;;;23.20;65.50;;;;;;10415171;28;20377;-58
2021/06/12 06:20:46;;;;;;;11.95;4.43;;;23.20;65.60;;;;;;10415892;28;20541;-58
2021/06/12 06:25:46;;;;;;;13.18;3.97;;;23.20;65.70;;;;;;10416772;28;20033;-59
2021/06/12 06:30:47;;;;;;;16.85;3.65;;;23.20;65.80;;;;;;10416401;28;20037;-59
2021/06/12 06:35:49;;;;;;;13.48;4.50;;;23.30;65.90;;;;;;10416513;28;20382;-60
2021/06/12 06:40:49;;;;;;;18.58;4.03;;;23.30;65.90;;;;;;10416559;28;20044;-58
2021/06/12 06:45:50;;;;;;;14.65;4.40;;;23.20;65.90;;;;;;10423340;28;20502;-61
2021/06/12 06:50:51;;;;;;;9.68;4.32;;;23.20;66.20;;;;;;10414314;28;20037;-59
2021/06/12 06:55:52;;;;;;;8.15;3.65;;;23.30;66.00;;;;;;10415474;28;20052;-60
2021/06/12 07:00:53;;;;;;;10.57;2.90;;;23.30;65.70;;;;;;10414866;28;20033;-59
2021/06/12 07:05:54;;;;;;;4.90;2.92;;;23.30;65.60;;;;;;10414970;28;20491;-59
2021/06/12 07:10:55;;;;;;;7.82;3.67;;;23.30;65.30;;;;;;10412828;28;20048;-59
2021/06/12 07:15:56;;;;;;;9.50;3.88;;;23.30;65.20;;;;;;10414564;28;20101;-59
2021/06/12 07:20:57;;;;;;;6.60;3.42;;;23.30;65.20;;;;;;10420563;28;20029;-59
2021/06/12 07:25:58;;;;;;;8.68;3.40;;;23.30;65.10;;;;;;10413572;28;20061;-57
2021/06/12 07:30:59;;;;;;;5.15;2.88;;;23.30;65.10;;;;;;10412258;28;20029;-60
2021/06/12 07:36:00;;;;;;;5.93;3.58;;;23.30;65.00;;;;;;10414235;28;20549;-59
2021/06/12 07:41:00;;;;;;;7.93;4.13;;;23.20;64.80;;;;;;10416338;28;20037;-60
2021/06/12 07:46:01;;;;;;;12.93;4.05;;;23.30;64.70;;;;;;10420829;28;20100;-59
2021/06/12 07:51:02;;;;;;;5.75;3.15;;;23.30;64.60;;;;;;10413874;28;20025;-59
2021/06/12 07:56:04;;;;;;;10.23;5.63;;;23.30;64.70;;;;;;10417439;28;20026;-60
2021/06/12 08:01:05;;;;;;;6.97;3.25;;;23.20;64.50;;;;;;10422606;28;20545;-57
2021/06/12 08:06:05;;;;;;;6.75;3.47;;;23.20;64.40;;;;;;10421904;28;20033;-57
2021/06/12 08:11:06;;;;;;;6.55;3.58;;;23.20;64.20;;;;;;10408414;28;20069;-56
2021/06/12 08:16:08;;;;;;;8.35;3.45;;;23.20;64.00;;;;;;10422044;28;20096;-58
2021/06/12 08:21:09;;;;;;;7.13;3.42;;;23.20;64.00;;;;;;10421649;28;20037;-58
2021/06/12 08:26:11;;;;;;;6.82;3.75;;;23.20;63.70;;;;;;10421350;28;20382;-57
2021/06/12 08:31:11;;;;;;;11.13;5.47;;;23.20;63.30;;;;;;10419455;28;20033;-59
2021/06/12 08:36:12;;;;;;;6.35;3.45;;;23.20;63.00;;;;;;10420756;28;20029;-58
2021/06/12 08:41:15;;;;;;;8.32;3.13;;;23.20;63.00;;;;;;10424782;28;20021;-57
2021/06/12 08:46:16;;;;;;;10.88;4.15;;;23.20;62.70;;;;;;10420553;28;20117;-57
2021/06/12 08:51:17;;;;;;;6.68;3.72;;;23.20;62.30;;;;;;10419919;28;20038;-57
2021/06/12 08:56:18;;;;;;;7.28;4.13;;;23.20;61.80;;;;;;10419979;28;20112;-57
2021/06/12 09:01:21;;;;;;;4.57;3.17;;;23.20;61.70;;;;;;10420346;28;20022;-56
2021/06/12 09:06:22;;;;;;;5.15;3.05;;;23.20;61.40;;;;;;10419141;28;20070;-56
2021/06/12 09:11:25;;;;;;;6.70;3.10;;;23.20;61.20;;;;;;10419882;28;20160;-56
2021/06/12 09:16:38;;;;;;;6.38;3.50;;;23.20;60.90;;;;;;10419474;28;20454;-59
2021/06/12 09:21:44;;;;;;;6.18;3.60;;;23.20;60.50;;;;;;10418644;28;20715;-59
2021/06/12 09:26:53;;;;;;;5.68;3.47;;;23.20;60.40;;;;;;10418518;28;20091;-57
2021/06/12 09:31:54;;;;;;;6.93;3.00;;;23.20;59.90;;;;;;10417690;28;20042;-60
2021/06/12 09:36:55;;;;;;;5.38;3.28;;;23.20;60.00;;;;;;10418510;28;20437;-60
2021/06/12 09:41:56;;;;;;;4.25;3.20;;;23.20;60.10;;;;;;10427687;28;20033;-60
2021/06/12 09:46:58;;;;;;;6.90;3.25;;;23.20;60.10;;;;;;10418294;28;20041;-60
2021/06/12 09:52:09;;;;;;;6.88;3.53;;;23.20;60.20;;;;;;10417874;28;20508;-60
2021/06/12 09:57:16;;;;;;;4.22;3.42;;;23.30;59.50;;;;;;10416868;28;20036;-61
2021/06/12 10:02:39;;;;;;;4.20;2.97;;;23.20;60.10;;;;;;10433261;28;20135;-60
2021/06/12 10:07:42;;;;;;;5.38;3.00;;;23.30;59.90;;;;;;10416489;28;20040;-57
2021/06/12 10:12:44;;;;;;;5.57;3.42;;;23.20;58.80;;;;;;10403778;28;20120;-57
2021/06/12 10:17:51;;;;;;;4.88;3.00;;;23.30;60.10;;;;;;10416615;28;20080;-57
2021/06/12 10:22:54;;;;;;;7.00;3.30;;;23.30;59.80;;;;;;10415179;28;20068;-59
2021/06/12 10:27:56;;;;;;;6.95;3.30;;;23.20;58.80;;;;;;10415440;28;20117;-57
2021/06/12 10:32:57;;;;;;;6.57;3.40;;;23.20;55.30;;;;;;10415748;28;20108;-59
2021/06/12 10:38:13;;;;;;;6.50;3.33;;;23.20;56.20;;;;;;10414477;28;20045;-59
2021/06/12 10:43:17;;;;;;;6.22;3.70;;;23.20;56.90;;;;;;10416519;28;20037;-59
2021/06/12 10:48:50;;;;;;;8.02;3.35;;;23.20;56.90;;;;;;10416221;28;20025;-57
2021/06/12 10:54:09;;;;;;;7.88;3.88;;;23.20;56.20;;;;;;10410500;28;20053;-57
2021/06/12 10:59:12;;;;;;;9.38;3.63;;;23.20;56.00;;;;;;10412804;28;20045;-56
2021/06/12 11:04:15;;;;;;;5.05;2.65;;;23.20;55.30;;;;;;10411263;28;20466;-59
2021/06/12 11:09:19;;;;;;;9.25;3.00;;;23.20;55.50;;;;;;10414536;28;20026;-59
2021/06/12 11:14:20;;;;;;;5.47;3.05;;;23.20;55.90;;;;;;10401695;28;20029;-54
2021/06/12 11:19:25;;;;;;;7.13;2.83;;;23.20;56.00;;;;;;10414907;28;20051;-58
2021/06/12 11:24:32;;;;;;;8.25;2.80;;;23.30;55.90;;;;;;10414735;28;20037;-57
2021/06/12 11:29:33;;;;;;;9.27;3.28;;;23.30;55.30;;;;;;10413905;28;20040;-58
2021/06/12 11:34:48;;;;;;;6.47;3.47;;;23.30;55.30;;;;;;10414556;28;20128;-58
2021/06/12 11:40:02;;;;;;;6.57;3.13;;;23.30;55.50;;;;;;10414311;28;20401;-58
2021/06/12 11:45:20;;;;;;;6.25;3.03;;;23.30;55.60;;;;;;10413225;28;20128;-55
2021/06/12 11:50:32;;;;;;;4.10;2.78;;;23.30;55.50;;;;;;10414258;28;20037;-58
2021/06/12 11:55:33;;;;;;;6.18;3.40;;;23.30;55.70;;;;;;10414026;28;20040;-56
2021/06/12 12:00:36;;;;;;;3.80;3.17;;;23.30;55.30;;;;;;10413824;28;20064;-56
2021/06/12 12:05:41;;;;;;;6.38;3.03;;;23.20;54.90;;;;;;10413670;28;20037;-56
2021/06/12 12:10:54;;;;;;;4.13;2.72;;;23.30;54.70;;;;;;10401513;28;20379;-57
2021/06/12 12:15:54;;;;;;;6.65;2.53;;;23.30;54.90;;;;;;10413053;28;20385;-56
2021/06/12 12:20:57;;;;;;;5.60;2.97;;;23.30;54.80;;;;;;10421665;28;20113;-55
2021/06/12 12:26:16;;;;;;;7.53;2.90;;;23.30;53.70;;;;;;10411829;28;20026;-57
2021/06/12 12:31:17;;;;;;;4.55;2.55;;;23.30;54.20;;;;;;10411992;28;20035;-57
2021/06/12 12:36:19;;;;;;;7.40;2.80;;;23.30;54.20;;;;;;10413352;28;20075;-57
2021/06/12 12:41:20;;;;;;;4.60;2.70;;;23.30;52.70;;;;;;10418610;28;20112;-57
2021/06/12 12:46:21;;;;;;;7.25;2.90;;;23.30;53.40;;;;;;10424216;28;20550;-57
2021/06/12 12:51:27;;;;;;;5.80;3.40;;;23.30;53.70;;;;;;10419254;28;20048;-58
2021/06/12 12:56:53;;;;;;;5.35;3.40;;;23.40;54.10;;;;;;10420014;28;20033;-56
2021/06/12 13:01:54;;;;;;;4.85;2.90;;;23.30;54.10;;;;;;10409895;28;20108;-56
2021/06/12 13:07:22;;;;;;;7.28;2.97;;;23.40;53.80;;;;;;10420068;28;20033;-57
2021/06/12 13:12:22;;;;;;;11.95;2.65;;;23.40;53.30;;;;;;10419197;28;20038;-54
2021/06/12 13:17:26;;;;;;;12.70;3.38;;;23.40;53.40;;;;;;10419404;28;20080;-56
2021/06/12 13:22:44;;;;;;;10.27;3.38;;;23.40;53.80;;;;;;10418255;28;20500;-58
2021/06/12 13:27:49;;;;;;;15.80;4.10;;;23.40;53.80;;;;;;10419014;28;20140;-58
2021/06/12 13:33:15;;;;;;;6.35;3.63;;;23.40;54.00;;;;;;10418538;28;20036;-59
2021/06/12 13:38:20;;;;;;;6.97;3.28;;;23.50;51.90;;;;;;10418815;28;20036;-57
2021/06/12 13:43:36;;;;;;;8.00;3.22;;;23.50;53.80;;;;;;10418829;28;20108;-57
2021/06/12 13:48:39;;;;;;;8.63;3.25;;;23.50;54.20;;;;;;10411262;28;20453;-58
2021/06/12 13:53:44;;;;;;;6.40;3.17;;;23.50;54.50;;;;;;10415655;28;20160;-57
2021/06/12 13:58:47;;;;;;;9.43;3.08;;;23.50;54.80;;;;;;10416435;28;20044;-57
2021/06/12 14:03:48;;;;;;;6.90;3.17;;;23.40;55.00;;;;;;10417239;28;20040;-57
2021/06/12 14:08:48;;;;;;;10.13;3.70;;;23.50;55.10;;;;;;10416245;28;20041;-57
2021/06/12 14:13:49;;;;;;;6.93;3.05;;;23.40;55.10;;;;;;10415879;28;20107;-58
2021/06/12 14:18:50;;;;;;;6.72;2.45;;;23.40;55.30;;;;;;10417294;28;20036;-56
2021/06/12 14:23:51;;;;;;;7.07;2.72;;;23.40;55.40;;;;;;10416909;28;20053;-58
2021/06/12 14:28:52;;;;;;;5.45;3.13;;;23.40;55.40;;;;;;10416427;28;20041;-57
2021/06/12 14:33:52;;;;;;;6.07;2.65;;;23.40;55.60;;;;;;10416347;28;20052;-57
2021/06/12 14:38:53;;;;;;;5.63;2.67;;;23.40;55.60;;;;;;10416521;28;20091;-57
2021/06/12 14:43:54;;;;;;;6.40;3.22;;;23.40;55.80;;;;;;10424381;28;20080;-58
2021/06/12 14:48:54;;;;;;;5.00;2.28;;;23.40;55.80;;;;;;10415971;28;20378;-58
2021/06/12 14:53:55;;;;;;;7.93;3.20;;;23.40;55.80;;;;;;10415798;28;20068;-58
2021/06/12 14:58:56;;;;;;;4.45;2.53;;;23.40;56.50;;;;;;10415431;28;20242;-58
2021/06/12 15:03:57;;;;;;;4.45;3.05;;;23.40;56.00;;;;;;10414885;28;20116;-58
2021/06/12 15:08:57;;;;;;;5.53;2.50;;;23.40;56.00;;;;;;10414925;28;20064;-57
2021/06/12 15:13:58;;;;;;;3.83;2.72;;;23.40;56.10;;;;;;10414781;28;20029;-57
2021/06/12 15:18:59;;;;;;;5.40;2.55;;;23.40;56.10;;;;;;10415060;28;20053;-58
2021/06/12 15:23:59;;;;;;;3.88;2.58;;;23.40;56.10;;;;;;10414506;28;20041;-56
2021/06/12 15:29:00;;;;;;;5.30;2.30;;;23.40;56.20;;;;;;10414467;28;20529;-57
2021/06/12 15:34:01;;;;;;;4.55;2.70;;;23.40;56.30;;;;;;10414408;28;20030;-58
2021/06/12 15:39:04;;;;;;;3.33;2.20;;;23.40;56.40;;;;;;10414511;28;20420;-58
2021/06/12 15:44:05;;;;;;;3.72;2.65;;;23.40;56.40;;;;;;10412288;28;20061;-58
2021/06/12 15:49:05;;;;;;;5.82;2.50;;;23.40;56.40;;;;;;10413937;28;20041;-58
2021/06/12 15:54:06;;;;;;;4.85;2.50;;;23.40;55.80;;;;;;10413984;28;20025;-57
2021/06/12 15:59:07;;;;;;;5.03;2.30;;;23.50;56.00;;;;;;10413798;28;20112;-54
2021/06/12 16:04:08;;;;;;;6.80;5.70;;;23.50;56.00;;;;;;10413427;28;20112;-54
2021/06/12 16:09:08;;;;;;;6.40;4.13;;;23.60;56.20;;;;;;10412802;28;20105;-56
2021/06/12 16:14:09;;;;;;;10.10;3.47;;;23.60;55.80;;;;;;10411054;28;20107;-56
2021/06/12 16:19:09;;;;;;;9.13;4.65;;;23.60;56.70;;;;;;10419605;28;20112;-57
2021/06/12 16:24:10;;;;;;;11.52;3.47;;;23.60;58.00;;;;;;10411420;28;20104;-57
2021/06/12 16:29:11;;;;;;;11.32;3.53;;;23.70;59.70;;;;;;10420973;28;20112;-59
2021/06/12 16:34:12;;;;;;;7.85;2.78;;;23.80;58.10;;;;;;10420901;28;20053;-59
2021/06/12 16:39:13;;;;;;;8.18;3.17;;;23.80;56.80;;;;;;10421089;28;20045;-58
2021/06/12 16:44:14;;;;;;;10.45;2.65;;;23.80;55.90;;;;;;10429367;28;20064;-59
2021/06/12 16:49:14;;;;;;;7.63;2.70;;;23.70;55.00;;;;;;10420662;28;20038;-58
2021/06/12 16:54:36;;;;;;;7.22;3.15;;;23.70;54.60;;;;;;10420373;28;20113;-57
2021/06/12 16:59:36;;;;;;;5.65;2.25;;;23.70;54.10;;;;;;10420180;28;20094;-57
2021/06/12 17:04:37;;;;;;;3.80;1.90;;;23.60;53.50;;;;;;10419972;28;20208;-58
2021/06/12 17:09:37;;;;;;;6.43;2.80;;;23.60;53.50;;;;;;10419816;28;20710;-58
2021/06/12 17:14:38;;;;;;;5.03;2.30;;;23.60;52.70;;;;;;10419413;28;20033;-58
2021/06/12 17:19:39;;;;;;;5.82;2.55;;;23.60;52.70;;;;;;10419605;28;20160;-58
2021/06/12 17:24:40;;;;;;;8.07;3.28;;;23.60;53.00;;;;;;10410203;28;20109;-57
2021/06/12 17:29:40;;;;;;;4.50;2.55;;;23.50;52.20;;;;;;10417549;28;20088;-58
2021/06/12 17:34:41;;;;;;;4.97;2.95;;;23.50;52.60;;;;;;10415447;28;20018;-57
2021/06/12 17:39:42;;;;;;;4.85;3.47;;;23.50;52.00;;;;;;10418061;28;20029;-56
2021/06/12 17:44:43;;;;;;;5.78;3.17;;;23.40;51.40;;;;;;10426424;28;20545;-58
2021/06/12 17:49:44;;;;;;;3.28;2.60;;;23.40;51.60;;;;;;10417405;28;20037;-59
2021/06/12 17:54:44;;;;;;;7.88;3.05;;;23.50;51.60;;;;;;10416759;28;20116;-57
2021/06/12 17:59:45;;;;;;;4.60;2.45;;;23.40;52.30;;;;;;10416879;28;20216;-58
2021/06/12 18:04:46;;;;;;;5.18;3.13;;;23.40;52.00;;;;;;10416958;28;20029;-57
2021/06/12 18:09:47;;;;;;;3.53;2.78;;;23.40;51.10;;;;;;10409604;28;20049;-57
2021/06/12 18:14:48;;;;;;;5.57;3.63;;;23.40;51.30;;;;;;10413325;28;20533;-57
2021/06/12 18:19:49;;;;;;;5.47;3.53;;;23.40;51.40;;;;;;10415399;28;20056;-57
2021/06/12 18:24:50;;;;;;;7.82;3.78;;;23.40;50.10;;;;;;10413518;28;20037;-56
2021/06/12 18:29:51;;;;;;;6.40;3.65;;;23.40;50.80;;;;;;10414740;28;20482;-58
2021/06/12 18:34:51;;;;;;;6.10;3.92;;;23.40;51.00;;;;;;10416239;28;20030;-58
2021/06/12 18:39:52;;;;;;;5.38;3.53;;;23.40;50.60;;;;;;10415445;28;20430;-58
2021/06/12 18:44:53;;;;;;;5.32;4.05;;;23.40;50.90;;;;;;10425085;28;20054;-58
2021/06/12 18:49:53;;;;;;;6.00;3.60;;;23.30;51.20;;;;;;10416129;28;20037;-59
2021/06/12 18:54:55;;;;;;;3.60;3.10;;;23.30;50.70;;;;;;10415458;28;20155;-59
2021/06/12 18:59:55;;;;;;;7.65;4.22;;;23.30;51.60;;;;;;10415041;28;20030;-59
2021/06/12 19:04:56;;;;;;;6.10;3.63;;;23.30;51.30;;;;;;10415036;28;20108;-58
2021/06/12 19:09:56;;;;;;;11.30;3.90;;;23.30;51.60;;;;;;10414829;28;20119;-57
2021/06/12 19:14:57;;;;;;;6.05;3.92;;;23.30;51.30;;;;;;10413109;28;20401;-57
2021/06/12 19:19:58;;;;;;;4.95;3.60;;;23.20;51.90;;;;;;10413896;28;20036;-58
2021/06/12 19:24:59;;;;;;;5.13;3.35;;;23.10;52.00;;;;;;10413422;28;20075;-57
2021/06/12 19:30:00;;;;;;;7.70;3.53;;;23.10;52.50;;;;;;10414524;28;20035;-58
2021/06/12 19:35:11;;;;;;;6.80;3.65;;;23.10;52.80;;;;;;10413454;28;20033;-58
2021/06/12 19:40:15;;;;;;;8.50;4.55;;;23.10;53.40;;;;;;10413518;28;20452;-56
2021/06/12 19:45:18;;;;;;;8.90;3.95;;;23.10;53.50;;;;;;10413228;28;20037;-57
2021/06/12 19:50:19;;;;;;;6.70;3.40;;;23.10;53.60;;;;;;10413676;28;20132;-57
2021/06/12 19:55:20;;;;;;;7.35;3.67;;;23.10;53.80;;;;;;10426225;28;20021;-58
2021/06/12 20:00:21;;;;;;;5.00;3.60;;;23.10;54.00;;;;;;10425551;28;20080;-58
2021/06/12 20:05:23;;;;;;;7.20;4.00;;;23.20;54.10;;;;;;10425982;28;20041;-57
2021/06/12 20:10:23;;;;;;;5.03;3.55;;;23.20;54.20;;;;;;10424247;28;20504;-57
2021/06/12 20:15:26;;;;;;;6.38;4.10;;;23.20;54.30;;;;;;10426128;28;20072;-57
2021/06/12 20:20:26;;;;;;;6.72;3.40;;;23.20;54.30;;;;;;10426404;28;20060;-58
2021/06/12 20:25:27;;;;;;;5.03;3.20;;;23.20;54.20;;;;;;10426198;28;20120;-57
2021/06/12 20:30:28;;;;;;;5.82;3.85;;;23.10;54.20;;;;;;10426762;28;20037;-58
2021/06/12 20:35:29;;;;;;;5.22;3.63;;;23.10;54.20;;;;;;10426157;28;20112;-58
2021/06/12 20:40:30;;;;;;;7.25;3.78;;;23.10;54.30;;;;;;10426271;28;20038;-58
2021/06/12 20:45:31;;;;;;;6.93;3.50;;;23.10;54.20;;;;;;10430942;28;20049;-55
2021/06/12 20:50:31;;;;;;;6.43;3.92;;;23.10;54.20;;;;;;10426486;28;20056;-55
2021/06/12 20:55:33;;;;;;;5.13;3.33;;;23.10;54.30;;;;;;10426603;28;20053;-54
2021/06/12 21:00:34;;;;;;;4.85;3.40;;;23.10;54.30;;;;;;10426411;28;20042;-56
2021/06/12 21:05:35;;;;;;;5.50;3.30;;;23.10;54.40;;;;;;10419415;28;20055;-55
2021/06/12 21:10:35;;;;;;;8.00;3.90;;;23.10;54.50;;;;;;10409914;28;20045;-55
2021/06/12 21:15:36;;;;;;;6.00;3.75;;;23.10;54.50;;;;;;10416377;28;20021;-55
2021/06/12 21:20:37;;;;;;;5.65;3.50;;;23.10;54.50;;;;;;10419469;28;20120;-53
2021/06/12 21:25:38;;;;;;;5.43;3.40;;;23.10;54.40;;;;;;10417673;28;20383;-55
2021/06/12 21:30:38;;;;;;;7.68;3.97;;;23.10;54.40;;;;;;10406056;28;20485;-54
2021/06/12 21:35:39;;;;;;;5.25;3.53;;;23.10;54.40;;;;;;10418829;28;20026;-55
2021/06/12 21:40:40;;;;;;;4.80;3.10;;;23.10;54.40;;;;;;10419096;28;20037;-56
2021/06/12 21:45:41;;;;;;;7.18;4.38;;;23.10;54.40;;;;;;10424180;28;20057;-53
2021/06/12 21:50:42;;;;;;;6.97;3.33;;;23.00;54.40;;;;;;10418749;28;20053;-54
2021/06/12 21:55:42;;;;;;;5.53;3.72;;;23.00;54.40;;;;;;10418245;28;20087;-55
2021/06/12 22:00:57;;;;;;;4.57;3.55;;;23.00;54.30;;;;;;10417822;28;20067;-55
2021/06/12 22:05:58;;;;;;;5.70;4.03;;;23.00;54.20;;;;;;10416715;28;20029;-55
2021/06/12 22:11:00;;;;;;;6.32;3.92;;;23.00;54.20;;;;;;10410674;28;20394;-54
2021/06/12 22:16:01;;;;;;;5.50;4.10;;;23.00;54.20;;;;;;10403871;28;20033;-55
2021/06/12 22:26:12;;;;;;;4.55;3.97;;;23.00;54.20;;;;;;10416828;28;20033;-55
2021/06/12 22:31:16;;;;;;;8.77;4.70;;;23.00;54.00;;;;;;10417130;28;20424;-54
2021/06/12 22:36:16;;;;;;;5.80;4.63;;;23.00;54.00;;;;;;10416597;28;20034;-55
2021/06/12 22:41:17;;;;;;;7.50;3.78;;;23.00;54.00;;;;;;10420883;28;20507;-55
2021/06/12 22:46:18;;;;;;;4.63;3.67;;;23.00;53.90;;;;;;10420143;28;20236;-53
2021/06/12 22:51:19;;;;;;;5.50;3.80;;;23.00;53.90;;;;;;10415849;28;20029;-55
2021/06/12 22:56:29;;;;;;;5.25;4.10;;;23.00;54.00;;;;;;10415837;28;20029;-55
2021/06/12 23:01:31;;;;;;;5.90;3.83;;;23.00;54.00;;;;;;10403385;28;20044;-54
2021/06/12 23:06:31;;;;;;;5.30;3.88;;;23.00;54.00;;;;;;10415823;28;20481;-54
2021/06/12 23:11:32;;;;;;;7.40;4.18;;;22.90;54.00;;;;;;10404672;28;20041;-55
2021/06/12 23:16:33;;;;;;;7.95;4.30;;;23.00;53.90;;;;;;10415142;28;20057;-55
2021/06/12 23:21:33;;;;;;;5.65;4.20;;;22.90;53.90;;;;;;10414897;28;20068;-54
2021/06/12 23:26:34;;;;;;;6.25;4.18;;;23.00;54.00;;;;;;10413092;28;20033;-55
2021/06/12 23:31:35;;;;;;;8.07;4.82;;;23.00;54.00;;;;;;10414344;28;20041;-54
2021/06/12 23:36:36;;;;;;;7.45;4.22;;;22.90;53.90;;;;;;10414601;28;20112;-55
2021/06/12 23:41:36;;;;;;;7.43;4.70;;;22.90;53.80;;;;;;10414406;28;20121;-55
2021/06/12 23:46:37;;;;;;;6.70;4.28;;;22.90;53.80;;;;;;10414214;28;20057;-55
2021/06/12 23:51:38;;;;;;;5.28;4.10;;;22.90;53.80;;;;;;10412889;28;20124;-55
2021/06/12 23:56:41;;;;;;;5.82;4.20;;;22.90;53.80;;;;;;10414086;28;20021;-55
